Time;durP1;ratioP1;P1;durP2;ratioP2;P2;SDS_P1;SDS_P2;PMS_P1;PMS_P2;Temp;Humidity;BMP_temperature;BMP_pressure;BME280_temperature;BME280_humidity;BME280_pressure;Samples;Min_cycle;Max_cycle;Signal;HPM_P1;HPM_P2
2022/11/22 00:01:57;;;;;;;45.50;20.52;;;-3.00;99.90;;;;;;5065173;28;20182;-47
2022/11/22 00:04:23;;;;;;;44.70;21.25;;;-2.90;99.90;;;;;;5044211;28;20536;-47
2022/11/22 00:06:48;;;;;;;38.63;19.83;;;-2.90;99.90;;;;;;5060300;28;20032;-47
2022/11/22 00:09:13;;;;;;;40.83;18.73;;;-2.90;99.90;;;;;;5044556;28;20025;-50
2022/11/22 00:11:39;;;;;;;41.03;20.00;;;-2.90;99.90;;;;;;5050364;28;20037;-50
2022/11/22 00:14:04;;;;;;;39.17;19.00;;;-2.90;99.90;;;;;;5047718;28;20035;-48
2022/11/22 00:16:30;;;;;;;37.33;18.60;;;-2.90;99.90;;;;;;5048572;28;20151;-48
2022/11/22 00:18:55;;;;;;;43.55;20.80;;;-2.90;99.90;;;;;;5049079;28;20039;-49
2022/11/22 00:21:21;;;;;;;40.70;17.77;;;-2.90;99.90;;;;;;5064862;28;20300;-47
2022/11/22 00:23:46;;;;;;;41.08;18.00;;;-2.90;99.90;;;;;;5044597;28;20400;-46
2022/11/22 00:26:12;;;;;;;36.45;18.50;;;-2.90;99.90;;;;;;5063850;28;20028;-47
2022/11/22 00:28:38;;;;;;;36.72;18.08;;;-2.90;99.90;;;;;;5051647;28;20041;-47
2022/11/22 00:31:04;;;;;;;35.33;17.95;;;-2.90;99.90;;;;;;5058577;28;20044;-48
2022/11/22 00:33:29;;;;;;;37.72;19.60;;;-2.90;99.90;;;;;;5062793;28;20506;-48
2022/11/22 00:35:55;;;;;;;38.00;18.15;;;-2.90;99.90;;;;;;5045795;28;20397;-50
2022/11/22 00:38:20;;;;;;;37.42;19.10;;;-2.90;99.90;;;;;;5054626;28;20021;-51
2022/11/22 00:40:46;;;;;;;47.60;20.73;;;-2.90;99.90;;;;;;5051533;28;20033;-51
2022/11/22 00:43:11;;;;;;;37.55;18.33;;;-2.90;99.90;;;;;;5062402;28;20048;-51
2022/11/22 00:45:40;;;;;;;41.97;18.63;;;-2.90;99.90;;;;;;5045761;28;20063;-49
2022/11/22 00:48:05;;;;;;;38.80;18.75;;;-2.90;99.90;;;;;;5049442;28;20089;-54
2022/11/22 00:50:31;;;;;;;44.95;21.00;;;-2.90;99.90;;;;;;5046845;28;20037;-48
2022/11/22 00:52:56;;;;;;;42.42;19.25;;;-2.90;99.90;;;;;;5061980;28;20361;-49
2022/11/22 00:55:21;;;;;;;38.97;18.58;;;-3.00;99.90;;;;;;5052863;28;20028;-50
2022/11/22 00:57:47;;;;;;;39.38;18.42;;;-3.00;99.90;;;;;;5052546;28;20477;-48
2022/11/22 01:00:13;;;;;;;36.63;18.05;;;-2.90;99.90;;;;;;5059347;28;20187;-51
2022/11/22 01:02:38;;;;;;;38.53;19.02;;;-2.90;99.90;;;;;;5065160;28;20033;-47
2022/11/22 01:05:04;;;;;;;34.42;17.17;;;-2.90;99.90;;;;;;5056127;28;20083;-50
2022/11/22 01:07:29;;;;;;;36.20;18.25;;;-2.90;99.90;;;;;;5048541;28;20036;-47
2022/11/22 01:09:55;;;;;;;35.88;17.98;;;-2.90;99.90;;;;;;5066396;28;20044;-49
2022/11/22 01:12:20;;;;;;;35.53;18.10;;;-2.90;99.90;;;;;;5048848;28;20041;-52
2022/11/22 01:14:46;;;;;;;32.80;15.88;;;-2.90;99.90;;;;;;5053723;28;20041;-46
2022/11/22 01:17:11;;;;;;;39.45;18.02;;;-2.90;99.90;;;;;;5067478;28;20031;-45
2022/11/22 01:19:37;;;;;;;37.78;17.63;;;-2.80;99.90;;;;;;5056099;28;20481;-45
2022/11/22 01:22:02;;;;;;;37.28;18.20;;;-2.80;99.90;;;;;;5048600;28;20033;-47
2022/11/22 01:24:28;;;;;;;38.95;18.05;;;-2.80;99.90;;;;;;5065752;28;20051;-49
2022/11/22 01:26:53;;;;;;;32.80;17.10;;;-2.80;99.90;;;;;;5048608;28;20079;-47
2022/11/22 01:29:19;;;;;;;34.97;17.13;;;-2.70;99.90;;;;;;5065760;28;20032;-49
2022/11/22 01:31:44;;;;;;;41.03;18.83;;;-2.70;99.90;;;;;;5052374;28;20458;-47
2022/11/22 01:34:10;;;;;;;36.90;18.38;;;-2.70;99.90;;;;;;5069694;28;20033;-48
2022/11/22 01:36:35;;;;;;;33.28;18.75;;;-2.60;99.90;;;;;;5052528;28;20044;-46
2022/11/22 01:39:01;;;;;;;32.92;16.98;;;-2.60;99.90;;;;;;5052144;28;20025;-46
2022/11/22 01:41:26;;;;;;;34.92;16.63;;;-2.50;99.90;;;;;;5071462;28;20123;-45
2022/11/22 01:43:52;;;;;;;34.10;16.88;;;-2.50;99.90;;;;;;5070294;28;20451;-50
2022/11/22 01:46:33;;;;;;;33.88;17.08;;;-2.50;99.90;;;;;;5052742;28;20485;-49
2022/11/22 01:48:58;;;;;;;33.47;16.02;;;-2.40;99.90;;;;;;5032279;28;20026;-46
2022/11/22 01:51:31;;;;;;;30.38;16.00;;;-2.40;99.90;;;;;;5070881;28;20554;-46
2022/11/22 01:54:01;;;;;;;32.03;16.80;;;-2.40;99.90;;;;;;5032306;28;20033;-47
2022/11/22 01:56:28;;;;;;;33.40;16.75;;;-2.40;99.90;;;;;;5032302;28;20040;-47
2022/11/22 01:59:01;;;;;;;34.10;17.00;;;-2.40;99.90;;;;;;5069298;28;20043;-45
2022/11/22 02:01:27;;;;;;;31.85;16.05;;;-2.40;99.90;;;;;;5032112;28;20055;-46
2022/11/22 02:03:57;;;;;;;31.88;17.48;;;-2.40;99.90;;;;;;5069312;28;20044;-46
2022/11/22 02:06:27;;;;;;;33.95;17.83;;;-2.40;99.90;;;;;;5044372;28;20504;-46
2022/11/22 02:09:02;;;;;;;35.50;16.60;;;-2.40;99.90;;;;;;5048440;28;20108;-45
2022/11/22 02:11:27;;;;;;;34.30;17.63;;;-2.40;99.90;;;;;;5031990;28;20060;-47
2022/11/22 02:13:54;;;;;;;30.05;15.82;;;-2.40;99.90;;;;;;5069068;28;20647;-46
2022/11/22 02:16:20;;;;;;;30.17;15.00;;;-2.40;99.90;;;;;;5052133;28;20024;-46
2022/11/22 02:18:46;;;;;;;35.67;17.33;;;-2.40;99.90;;;;;;5050227;28;20485;-50
2022/11/22 02:21:11;;;;;;;31.95;16.13;;;-2.30;99.90;;;;;;5069524;28;20032;-46
2022/11/22 02:23:48;;;;;;;31.08;16.55;;;-2.40;99.90;;;;;;5050280;28;20029;-45
2022/11/22 02:26:14;;;;;;;33.13;14.60;;;-2.40;99.90;;;;;;5031732;28;20038;-46
2022/11/22 02:28:40;;;;;;;32.83;15.77;;;-2.40;99.90;;;;;;5050419;28;20574;-46
2022/11/22 02:31:05;;;;;;;34.17;15.98;;;-2.40;99.90;;;;;;5070651;28;20069;-47
2022/11/22 02:33:31;;;;;;;34.75;16.13;;;-2.50;99.90;;;;;;5049867;28;20040;-45
2022/11/22 02:35:58;;;;;;;35.88;17.45;;;-2.40;99.90;;;;;;5070315;28;20259;-47
2022/11/22 02:38:28;;;;;;;33.38;17.55;;;-2.50;99.90;;;;;;5050052;28;20029;-45
2022/11/22 02:40:55;;;;;;;35.55;16.42;;;-2.50;99.90;;;;;;5070504;28;20106;-45
2022/11/22 02:43:25;;;;;;;33.53;16.58;;;-2.50;99.90;;;;;;5049351;28;20060;-45
2022/11/22 02:45:51;;;;;;;29.52;16.25;;;-2.50;99.90;;;;;;5071254;28;20051;-45
2022/11/22 02:48:17;;;;;;;36.08;17.58;;;-2.50;99.90;;;;;;5049761;28;20029;-47
2022/11/22 02:50:43;;;;;;;40.55;19.30;;;-2.50;99.90;;;;;;5070086;28;20255;-46
2022/11/22 02:53:09;;;;;;;39.22;17.95;;;-2.50;99.90;;;;;;5049577;28;20033;-47
2022/11/22 02:55:35;;;;;;;38.40;19.02;;;-2.50;99.90;;;;;;5070261;28;20032;-45
2022/11/22 02:58:01;;;;;;;35.03;18.70;;;-2.50;99.90;;;;;;5049818;28;20036;-47
2022/11/22 03:00:27;;;;;;;39.40;18.30;;;-2.50;99.90;;;;;;5070338;28;20036;-44
2022/11/22 03:02:52;;;;;;;44.00;17.92;;;-2.50;99.90;;;;;;5049801;28;20376;-47
2022/11/22 03:05:18;;;;;;;36.92;18.40;;;-2.50;99.90;;;;;;5056057;28;20029;-49
2022/11/22 03:07:43;;;;;;;33.90;17.52;;;-2.50;99.90;;;;;;5068003;28;20591;-47
2022/11/22 03:10:09;;;;;;;40.28;19.35;;;-2.50;99.90;;;;;;5051552;28;20032;-46
2022/11/22 03:12:35;;;;;;;37.42;18.25;;;-2.50;99.90;;;;;;5067749;28;20043;-45
2022/11/22 03:15:00;;;;;;;39.47;18.20;;;-2.50;99.90;;;;;;5051145;28;20037;-47
2022/11/22 03:17:26;;;;;;;41.72;19.23;;;-2.50;99.90;;;;;;5067896;28;20039;-44
2022/11/22 03:19:51;;;;;;;43.72;20.15;;;-2.60;99.90;;;;;;5070204;28;20488;-46
2022/11/22 03:22:17;;;;;;;40.85;19.20;;;-2.60;99.90;;;;;;5055358;28;20492;-45
2022/11/22 03:24:42;;;;;;;45.47;20.02;;;-2.60;99.90;;;;;;5070135;28;20020;-46
2022/11/22 03:27:08;;;;;;;39.13;18.63;;;-2.60;99.90;;;;;;5054049;28;20493;-46
2022/11/22 03:29:33;;;;;;;43.72;20.27;;;-2.50;99.90;;;;;;5070012;28;20024;-45
2022/11/22 03:31:59;;;;;;;44.53;21.30;;;-2.50;99.90;;;;;;5052699;28;20036;-47
2022/11/22 03:34:25;;;;;;;52.30;20.80;;;-2.50;99.90;;;;;;5069954;28;20107;-45
2022/11/22 03:36:50;;;;;;;47.05;20.95;;;-2.50;99.90;;;;;;5051111;28;20104;-45
2022/11/22 03:39:16;;;;;;;50.30;23.08;;;-2.40;99.90;;;;;;5070015;28;20107;-49
2022/11/22 03:41:41;;;;;;;51.88;21.80;;;-2.40;99.90;;;;;;5049687;28;20056;-46
2022/11/22 03:44:07;;;;;;;49.15;21.45;;;-2.40;99.90;;;;;;5070082;28;20481;-45
2022/11/22 03:46:33;;;;;;;48.85;21.40;;;-2.40;99.90;;;;;;5048711;28;20513;-46
2022/11/22 03:48:58;;;;;;;47.13;20.95;;;-2.40;99.90;;;;;;5069981;28;20388;-46
2022/11/22 03:51:23;;;;;;;48.70;21.70;;;-2.30;99.90;;;;;;5050157;28;20404;-48
2022/11/22 03:53:49;;;;;;;54.33;23.30;;;-2.20;99.90;;;;;;5047696;28;20047;-46
2022/11/22 03:56:14;;;;;;;51.47;22.08;;;-2.20;99.90;;;;;;5068887;28;20426;-45
2022/11/22 03:58:40;;;;;;;45.45;21.13;;;-2.20;99.90;;;;;;5048482;28;20029;-45
2022/11/22 04:01:05;;;;;;;49.33;22.15;;;-2.20;99.90;;;;;;5069125;28;20137;-45
2022/11/22 04:03:31;;;;;;;47.03;22.58;;;-2.10;99.90;;;;;;5048185;28;20188;-45
2022/11/22 04:05:56;;;;;;;50.72;22.92;;;-2.10;99.90;;;;;;5065246;28;20404;-49
2022/11/22 04:08:22;;;;;;;54.50;23.95;;;-2.10;99.90;;;;;;5048085;28;20044;-51
2022/11/22 04:10:51;;;;;;;54.00;22.63;;;-2.10;99.90;;;;;;5069007;28;20081;-47
2022/11/22 04:13:18;;;;;;;46.60;21.92;;;-2.10;99.90;;;;;;5048440;28;20114;-48
2022/11/22 04:15:43;;;;;;;49.58;22.00;;;-2.10;99.90;;;;;;5068799;28;20095;-45
2022/11/22 04:18:10;;;;;;;52.72;22.05;;;-2.00;99.90;;;;;;5047102;28;20414;-45
2022/11/22 04:23:22;;;;;;;46.60;21.08;;;-2.00;99.90;;;;;;5046574;28;20183;-45
2022/11/22 04:25:50;;;;;;;47.72;21.35;;;-2.00;99.90;;;;;;5068824;28;20029;-51
2022/11/22 04:28:17;;;;;;;52.38;22.42;;;-2.00;99.90;;;;;;5046563;28;20040;-46
2022/11/22 04:33:28;;;;;;;53.85;22.23;;;-1.90;99.90;;;;;;5047473;28;20043;-52
2022/11/22 04:35:54;;;;;;;58.55;24.45;;;-1.90;99.90;;;;;;5068369;28;20539;-51
2022/11/22 04:38:20;;;;;;;56.13;22.83;;;-1.90;99.90;;;;;;5047709;28;20028;-46
2022/11/22 04:40:46;;;;;;;45.95;21.83;;;-1.90;99.90;;;;;;5057471;28;20464;-45
2022/11/22 04:46:11;;;;;;;52.00;21.73;;;-1.90;99.90;;;;;;5028461;28;20036;-47
2022/11/22 04:48:37;;;;;;;57.25;21.35;;;-1.90;99.90;;;;;;5048997;28;20112;-50
2022/11/22 04:53:47;;;;;;;55.83;20.95;;;-1.80;99.90;;;;;;5029452;28;20087;-46
2022/11/22 04:56:13;;;;;;;57.97;23.08;;;-1.80;99.90;;;;;;5064455;28;20036;-49
2022/11/22 04:58:38;;;;;;;49.72;22.17;;;-1.80;99.90;;;;;;5048945;28;20065;-52
2022/11/22 05:01:04;;;;;;;50.30;22.98;;;-1.80;99.90;;;;;;5055371;28;20039;-47
2022/11/22 05:03:29;;;;;;;55.40;23.23;;;-1.80;99.90;;;;;;5047077;28;20066;-47
2022/11/22 05:05:55;;;;;;;54.15;22.08;;;-1.80;99.90;;;;;;5061145;28;20024;-47
2022/11/22 05:08:20;;;;;;;54.17;23.00;;;-1.80;99.90;;;;;;5050705;28;20028;-48
2022/11/22 05:10:58;;;;;;;50.30;21.77;;;-1.80;99.90;;;;;;5048711;28;20562;-47
2022/11/22 05:13:50;;;;;;;60.67;24.05;;;-1.80;99.90;;;;;;5045331;28;20060;-49
2022/11/22 05:16:15;;;;;;;54.28;23.08;;;-1.80;99.90;;;;;;5025558;28;20441;-45
2022/11/22 05:18:41;;;;;;;57.45;25.35;;;-1.70;99.90;;;;;;5046679;28;20047;-50
2022/11/22 05:21:12;;;;;;;56.08;24.60;;;-1.80;99.90;;;;;;5048661;28;20509;-44
2022/11/22 05:23:53;;;;;;;50.78;21.95;;;-1.70;99.90;;;;;;5035370;28;20037;-48
2022/11/22 05:26:31;;;;;;;55.53;22.77;;;-1.70;99.90;;;;;;5068363;28;20040;-45
2022/11/22 05:28:57;;;;;;;64.45;24.52;;;-1.70;99.90;;;;;;5040479;28;20039;-48
2022/11/22 05:31:26;;;;;;;55.35;21.85;;;-1.70;99.90;;;;;;5068349;28;20031;-47
2022/11/22 05:33:52;;;;;;;59.10;24.80;;;-1.70;99.90;;;;;;5052805;28;20432;-46
2022/11/22 05:36:18;;;;;;;56.00;23.35;;;-1.70;99.90;;;;;;5065051;28;20041;-44
2022/11/22 05:38:44;;;;;;;54.67;25.25;;;-1.70;99.90;;;;;;5048517;28;20029;-48
2022/11/22 05:41:12;;;;;;;54.47;22.45;;;-1.60;99.90;;;;;;5053753;28;20077;-50
2022/11/22 05:43:38;;;;;;;54.28;22.45;;;-1.60;99.90;;;;;;5068039;28;20033;-48
2022/11/22 05:46:22;;;;;;;58.88;24.20;;;-1.60;99.90;;;;;;5046898;28;20591;-49
2022/11/22 05:48:48;;;;;;;52.17;23.67;;;-1.60;99.90;;;;;;5053785;28;20619;-49
2022/11/22 05:51:17;;;;;;;55.05;24.33;;;-1.60;99.90;;;;;;5044693;28;20706;-45
2022/11/22 05:53:43;;;;;;;62.22;25.83;;;-1.60;99.90;;;;;;5048210;28;20434;-45
2022/11/22 05:56:11;;;;;;;51.30;22.60;;;-1.60;99.90;;;;;;5053832;28;20041;-52
2022/11/22 05:58:37;;;;;;;48.88;23.38;;;-1.50;99.90;;;;;;5067500;28;20377;-47
2022/11/22 06:01:04;;;;;;;51.60;22.10;;;-1.50;99.90;;;;;;5057579;28;20061;-48
2022/11/22 06:03:30;;;;;;;54.40;22.23;;;-1.50;99.90;;;;;;5048219;28;20037;-45
2022/11/22 06:05:56;;;;;;;50.15;24.15;;;-1.50;99.90;;;;;;5052321;28;20103;-46
2022/11/22 06:08:21;;;;;;;53.65;23.98;;;-1.50;99.90;;;;;;5048147;28;20037;-51
2022/11/22 06:10:47;;;;;;;50.80;23.73;;;-1.50;99.90;;;;;;5064939;28;20488;-52
2022/11/22 06:13:12;;;;;;;53.78;22.70;;;-1.40;99.90;;;;;;5048131;28;20041;-49
2022/11/22 06:15:38;;;;;;;55.90;22.73;;;-1.40;99.90;;;;;;5064415;28;20032;-45
2022/11/22 06:18:03;;;;;;;53.45;23.88;;;-1.40;99.90;;;;;;5052217;28;20033;-49
2022/11/22 06:20:29;;;;;;;57.38;22.90;;;-1.40;99.90;;;;;;5068763;28;20482;-50
2022/11/22 06:22:57;;;;;;;52.58;22.38;;;-1.40;99.90;;;;;;5071287;28;20111;-46
2022/11/22 06:25:23;;;;;;;49.63;23.02;;;-1.30;99.90;;;;;;5054126;28;20099;-46
2022/11/22 06:27:49;;;;;;;61.20;25.05;;;-1.40;99.90;;;;;;5071200;28;20029;-45
2022/11/22 06:30:14;;;;;;;50.67;21.80;;;-1.30;99.90;;;;;;5054337;28;20043;-49
2022/11/22 06:32:40;;;;;;;56.13;23.20;;;-1.30;99.90;;;;;;5071230;28;20028;-49
2022/11/22 06:35:06;;;;;;;61.08;26.88;;;-1.30;99.90;;;;;;5046642;28;20563;-45
2022/11/22 06:37:31;;;;;;;52.00;22.90;;;-1.30;99.90;;;;;;5049990;28;20056;-48
2022/11/22 06:39:57;;;;;;;48.78;21.75;;;-1.30;99.90;;;;;;5050699;28;20076;-45
2022/11/22 06:42:22;;;;;;;49.92;23.90;;;-1.30;99.90;;;;;;5048463;28;20021;-44
2022/11/22 06:44:48;;;;;;;57.13;25.15;;;-1.30;99.90;;;;;;5050251;28;20072;-45
2022/11/22 06:47:13;;;;;;;52.08;23.55;;;-1.30;99.90;;;;;;5049993;28;20171;-44
2022/11/22 06:49:39;;;;;;;57.35;25.50;;;-1.20;99.90;;;;;;5049526;28;20033;-44
2022/11/22 06:52:04;;;;;;;61.28;25.42;;;-1.20;99.90;;;;;;5069568;28;20483;-44
2022/11/22 06:54:30;;;;;;;49.03;22.77;;;-1.20;99.90;;;;;;5048357;28;20029;-44
2022/11/22 06:56:55;;;;;;;56.25;24.45;;;-1.20;99.90;;;;;;5069578;28;20027;-44
2022/11/22 06:59:20;;;;;;;76.03;31.10;;;-1.20;99.90;;;;;;5050220;28;20594;-45
2022/11/22 07:01:46;;;;;;;138.07;54.25;;;-1.10;99.90;;;;;;5045823;28;20033;-46
2022/11/22 07:04:11;;;;;;;319.95;98.43;;;-1.10;99.90;;;;;;5069739;28;20071;-44
2022/11/22 07:06:38;;;;;;;226.38;83.10;;;-1.10;99.90;;;;;;5042959;28;20082;-46
2022/11/22 07:09:06;;;;;;;95.75;40.92;;;-1.10;99.90;;;;;;5048019;28;20055;-46
2022/11/22 07:11:32;;;;;;;68.60;27.70;;;-1.00;99.90;;;;;;5067967;28;20563;-44
2022/11/22 07:14:00;;;;;;;64.13;27.27;;;-1.10;99.90;;;;;;5048437;28;20044;-43
2022/11/22 07:16:25;;;;;;;60.05;28.27;;;-1.00;99.90;;;;;;5067694;28;20055;-44
2022/11/22 07:18:51;;;;;;;55.65;26.42;;;-1.00;99.90;;;;;;5048252;28;20126;-44
2022/11/22 07:21:19;;;;;;;56.13;25.35;;;-1.00;99.90;;;;;;5068622;28;20040;-44
2022/11/22 07:23:47;;;;;;;56.35;25.23;;;-1.00;99.90;;;;;;5047584;28;20425;-44
2022/11/22 07:26:14;;;;;;;55.30;24.73;;;-1.00;99.90;;;;;;5070001;28;20078;-43
2022/11/22 07:28:40;;;;;;;55.47;24.52;;;-0.90;99.90;;;;;;5047767;28;20033;-45
2022/11/22 07:31:08;;;;;;;63.10;25.23;;;-0.90;99.90;;;;;;5069631;28;20036;-45
2022/11/22 07:33:34;;;;;;;57.90;25.38;;;-0.90;99.90;;;;;;5048675;28;20084;-44
2022/11/22 07:36:08;;;;;;;56.85;25.60;;;-0.90;99.90;;;;;;5069359;28;20500;-44
2022/11/22 07:38:34;;;;;;;54.38;24.42;;;-0.90;99.90;;;;;;5048401;28;20060;-44
2022/11/22 07:40:59;;;;;;;54.22;25.20;;;-0.90;99.90;;;;;;5069411;28;20097;-44
2022/11/22 07:43:25;;;;;;;52.45;22.73;;;-0.90;99.90;;;;;;5048941;28;20640;-45
2022/11/22 07:45:50;;;;;;;50.65;25.33;;;-0.80;99.90;;;;;;5069210;28;20036;-44
2022/11/22 07:48:16;;;;;;;59.55;25.38;;;-0.80;99.90;;;;;;5048739;28;20028;-46
2022/11/22 07:50:42;;;;;;;51.83;22.20;;;-0.80;99.90;;;;;;5068096;28;20060;-43
2022/11/22 07:53:09;;;;;;;52.63;22.33;;;-0.70;99.90;;;;;;5048678;28;20033;-43
2022/11/22 07:55:35;;;;;;;51.50;21.67;;;-0.60;99.90;;;;;;5069097;28;20033;-44
2022/11/22 07:58:00;;;;;;;57.03;24.48;;;-0.60;99.90;;;;;;5058739;28;20039;-43
2022/11/22 08:00:27;;;;;;;52.13;22.17;;;-0.50;99.90;;;;;;5049871;28;20043;-44
2022/11/22 08:02:52;;;;;;;52.25;21.42;;;-0.50;99.90;;;;;;5066962;28;20031;-45
2022/11/22 08:05:18;;;;;;;49.95;24.60;;;-0.50;99.90;;;;;;5054104;28;20025;-44
2022/11/22 08:07:46;;;;;;;62.72;26.63;;;-0.50;99.90;;;;;;5056339;28;20377;-44
2022/11/22 08:10:11;;;;;;;60.08;24.05;;;-0.50;99.90;;;;;;5049834;28;20029;-44
2022/11/22 08:12:37;;;;;;;64.63;25.55;;;-0.50;99.90;;;;;;5066642;28;20531;-46
2022/11/22 08:15:03;;;;;;;57.15;24.98;;;-0.50;99.90;;;;;;5069444;28;20040;-45
2022/11/22 08:17:28;;;;;;;65.82;28.05;;;-0.40;99.90;;;;;;5053925;28;20504;-44
2022/11/22 08:19:54;;;;;;;62.08;26.23;;;-0.50;99.90;;;;;;5069105;28;20411;-46
2022/11/22 08:22:19;;;;;;;63.22;25.95;;;-0.50;99.90;;;;;;5052555;28;20022;-44
2022/11/22 08:24:45;;;;;;;62.08;26.60;;;-0.50;99.90;;;;;;5069213;28;20081;-47
2022/11/22 08:27:10;;;;;;;69.50;26.58;;;-0.50;99.90;;;;;;5051338;28;20550;-44
2022/11/22 08:29:35;;;;;;;58.60;25.08;;;-0.40;99.90;;;;;;5069065;28;20021;-46
2022/11/22 08:32:01;;;;;;;65.07;27.35;;;-0.40;99.90;;;;;;5049906;28;20029;-44
2022/11/22 08:34:26;;;;;;;64.57;26.83;;;-0.40;99.90;;;;;;5068972;28;20032;-45
2022/11/22 08:36:52;;;;;;;57.97;25.67;;;-0.40;99.90;;;;;;5048487;28;20048;-44
2022/11/22 08:39:17;;;;;;;67.60;26.55;;;-0.30;99.90;;;;;;5068648;28;20072;-45
2022/11/22 08:41:43;;;;;;;67.13;26.67;;;-0.30;99.90;;;;;;5049202;28;20120;-44
2022/11/22 08:44:08;;;;;;;69.07;28.08;;;-0.30;99.90;;;;;;5066879;28;20078;-45
2022/11/22 08:46:34;;;;;;;63.92;26.90;;;-0.30;99.90;;;;;;5049212;28;20095;-46
2022/11/22 08:48:59;;;;;;;69.18;28.27;;;-0.30;99.90;;;;;;5047533;28;20032;-44
2022/11/22 08:51:25;;;;;;;60.65;26.05;;;-0.30;99.90;;;;;;5067871;28;20051;-44
2022/11/22 08:53:50;;;;;;;63.30;26.95;;;-0.30;99.90;;;;;;5047395;28;20029;-44
2022/11/22 08:56:16;;;;;;;56.35;26.20;;;-0.20;99.90;;;;;;5068087;28;20103;-44
2022/11/22 08:58:41;;;;;;;63.03;27.00;;;-0.20;99.90;;;;;;5047152;28;20043;-44
2022/11/22 09:01:09;;;;;;;64.90;27.60;;;-0.10;99.90;;;;;;5068050;28;20032;-44
2022/11/22 09:03:36;;;;;;;64.85;27.15;;;-0.10;99.90;;;;;;5045547;28;20512;-45
2022/11/22 09:06:08;;;;;;;73.05;29.30;;;-0.10;99.90;;;;;;5064557;28;20439;-50
2022/11/22 09:08:34;;;;;;;66.20;28.10;;;-0.10;99.90;;;;;;5046625;28;20028;-48
2022/11/22 09:11:06;;;;;;;60.38;25.60;;;0.00;99.90;;;;;;5067617;28;20508;-51
2022/11/22 09:13:32;;;;;;;70.80;28.65;;;0.00;99.90;;;;;;5046582;28;20048;-49
2022/11/22 09:16:03;;;;;;;69.95;28.35;;;-0.10;99.90;;;;;;5067743;28;20028;-45
2022/11/22 09:18:28;;;;;;;63.40;28.10;;;0.00;99.90;;;;;;5046598;28;20044;-45
2022/11/22 09:20:58;;;;;;;59.03;24.77;;;0.00;99.90;;;;;;5067493;28;20024;-45
2022/11/22 09:23:23;;;;;;;65.10;27.20;;;0.10;99.90;;;;;;5046971;28;20029;-45
2022/11/22 09:25:59;;;;;;;65.55;27.42;;;0.10;99.90;;;;;;5067563;28;20036;-45
2022/11/22 09:28:26;;;;;;;60.42;25.38;;;0.10;99.90;;;;;;5040472;28;20060;-45
2022/11/22 09:31:08;;;;;;;65.68;26.40;;;0.10;99.90;;;;;;5067662;28;20400;-45
2022/11/22 09:33:36;;;;;;;60.13;26.17;;;0.20;99.90;;;;;;5041623;28;20032;-45
2022/11/22 09:36:08;;;;;;;66.85;29.25;;;0.20;99.90;;;;;;5067762;28;20090;-45
2022/11/22 09:38:34;;;;;;;72.18;30.33;;;0.20;99.90;;;;;;5046428;28;20025;-45
2022/11/22 09:41:09;;;;;;;63.17;26.85;;;0.20;99.90;;;;;;5067428;28;20049;-45
2022/11/22 09:43:40;;;;;;;69.40;28.10;;;0.20;99.90;;;;;;5041491;28;20124;-45
2022/11/22 09:46:26;;;;;;;58.53;27.10;;;0.20;99.90;;;;;;5028318;28;20476;-45
2022/11/22 09:49:06;;;;;;;62.45;27.13;;;0.30;99.90;;;;;;5043850;28;20044;-48
2022/11/22 09:51:38;;;;;;;71.35;28.90;;;0.30;99.90;;;;;;5068844;28;20485;-45
2022/11/22 09:54:09;;;;;;;72.13;30.63;;;0.40;99.90;;;;;;5049372;28;20051;-47
2022/11/22 09:56:36;;;;;;;75.88;28.75;;;0.40;99.90;;;;;;5032017;28;20033;-45
2022/11/22 09:59:21;;;;;;;66.68;28.08;;;0.40;99.90;;;;;;5050150;28;20032;-45
2022/11/22 10:01:53;;;;;;;76.80;30.17;;;0.50;99.90;;;;;;5069978;28;20048;-50
2022/11/22 10:04:27;;;;;;;74.85;30.45;;;0.60;99.90;;;;;;5071923;28;20071;-45
2022/11/22 10:07:00;;;;;;;76.75;31.23;;;0.60;99.90;;;;;;5028945;28;20033;-45
2022/11/22 10:09:52;;;;;;;79.90;31.63;;;0.60;99.90;;;;;;5071690;28;20021;-45
2022/11/22 10:12:33;;;;;;;80.63;30.85;;;0.50;99.90;;;;;;5039318;28;20036;-45
2022/11/22 10:15:17;;;;;;;70.70;28.83;;;0.60;99.90;;;;;;5071591;28;20043;-49
2022/11/22 10:18:15;;;;;;;79.57;30.42;;;0.70;99.90;;;;;;5045880;28;20037;-45
2022/11/22 10:20:41;;;;;;;72.72;28.92;;;0.70;99.90;;;;;;5031477;28;20061;-50
2022/11/22 10:23:17;;;;;;;72.55;28.20;;;0.70;99.90;;;;;;5057147;28;20060;-45
2022/11/22 10:25:57;;;;;;;80.80;31.13;;;0.70;99.90;;;;;;5031581;28;20068;-45
2022/11/22 10:28:32;;;;;;;75.22;29.30;;;0.70;99.90;;;;;;5043567;28;20059;-44
2022/11/22 10:31:16;;;;;;;76.35;29.17;;;0.70;99.90;;;;;;5031820;28;20140;-45
2022/11/22 10:34:16;;;;;;;72.43;27.45;;;0.70;99.90;;;;;;5045747;28;20431;-47
2022/11/22 10:37:06;;;;;;;68.82;27.38;;;0.70;99.90;;;;;;5029891;28;20570;-45
2022/11/22 10:39:59;;;;;;;73.88;30.65;;;0.70;99.90;;;;;;5024113;28;20076;-45
2022/11/22 10:42:57;;;;;;;78.13;29.73;;;0.70;99.90;;;;;;5069230;28;20512;-45
2022/11/22 10:45:33;;;;;;;80.53;30.42;;;0.70;99.90;;;;;;5071030;28;20506;-48
2022/11/22 10:48:22;;;;;;;78.60;30.02;;;0.70;99.90;;;;;;5049749;28;20033;-45
2022/11/22 10:51:06;;;;;;;61.40;26.00;;;0.70;99.90;;;;;;5050876;28;20117;-44
2022/11/22 10:53:46;;;;;;;78.18;29.63;;;0.80;99.90;;;;;;5044034;28;20096;-45
2022/11/22 10:56:26;;;;;;;78.65;28.95;;;0.80;99.90;;;;;;5030985;28;20030;-45
2022/11/22 10:59:19;;;;;;;69.80;28.52;;;0.80;99.90;;;;;;5046625;28;20037;-45
2022/11/22 11:02:08;;;;;;;75.32;31.52;;;0.80;99.90;;;;;;5029327;28;20441;-47
2022/11/22 11:04:37;;;;;;;148.95;52.30;;;0.80;99.90;;;;;;5033569;28;20104;-45
2022/11/22 11:07:05;;;;;;;79.72;29.67;;;0.80;99.90;;;;;;5065297;28;20028;-46
2022/11/22 11:09:42;;;;;;;69.47;27.73;;;0.90;99.90;;;;;;5070629;28;20369;-48
2022/11/22 11:12:37;;;;;;;71.80;28.23;;;0.90;99.90;;;;;;5035156;28;20036;-47
2022/11/22 11:15:32;;;;;;;74.15;28.75;;;0.90;99.90;;;;;;5025079;28;20238;-47
2022/11/22 11:18:01;;;;;;;73.57;27.75;;;0.90;99.90;;;;;;5048921;28;20035;-47
2022/11/22 11:20:32;;;;;;;72.53;26.52;;;1.00;99.90;;;;;;5050353;28;20401;-50
2022/11/22 11:22:57;;;;;;;80.82;30.17;;;1.10;99.90;;;;;;5048709;28;20116;-48
2022/11/22 11:25:28;;;;;;;68.82;28.15;;;1.00;99.90;;;;;;5050816;28;20611;-49
2022/11/22 11:27:57;;;;;;;77.43;30.73;;;1.10;99.90;;;;;;5067965;28;20111;-46
2022/11/22 11:30:22;;;;;;;77.97;31.98;;;1.10;99.90;;;;;;5050300;28;20021;-48
2022/11/22 11:32:54;;;;;;;72.30;28.73;;;1.10;99.90;;;;;;5067474;28;20035;-46
2022/11/22 11:35:23;;;;;;;73.90;28.70;;;1.20;99.90;;;;;;5050150;28;20099;-46
2022/11/22 11:37:48;;;;;;;69.88;26.55;;;1.20;99.90;;;;;;5067862;28;20660;-47
2022/11/22 11:40:28;;;;;;;70.53;29.48;;;1.30;99.90;;;;;;5056532;28;20045;-49
2022/11/22 11:43:19;;;;;;;70.85;26.20;;;1.30;99.90;;;;;;5057800;28;20020;-47
2022/11/22 11:45:45;;;;;;;65.43;25.83;;;1.20;99.90;;;;;;5050370;28;20115;-46
2022/11/22 11:48:42;;;;;;;61.35;25.05;;;1.20;99.90;;;;;;5055633;28;20131;-47
2022/11/22 11:51:14;;;;;;;61.58;26.58;;;1.30;99.90;;;;;;5030239;28;20029;-49
2022/11/22 11:53:48;;;;;;;61.75;24.92;;;1.30;99.90;;;;;;5043940;28;20029;-49
2022/11/22 11:56:37;;;;;;;62.33;24.75;;;1.40;99.90;;;;;;5030000;28;20116;-47
2022/11/22 11:59:09;;;;;;;67.70;26.70;;;1.40;99.90;;;;;;5023553;28;20053;-48
2022/11/22 12:01:36;;;;;;;68.75;27.35;;;1.40;99.90;;;;;;5029828;28;20073;-47
2022/11/22 12:04:03;;;;;;;68.57;27.83;;;1.40;99.90;;;;;;5047902;28;20051;-46
2022/11/22 12:06:31;;;;;;;62.30;25.55;;;1.30;99.90;;;;;;5065421;28;20036;-49
2022/11/22 12:08:58;;;;;;;67.88;26.20;;;1.30;99.90;;;;;;5048050;28;20029;-48
2022/11/22 12:11:33;;;;;;;66.50;25.05;;;1.30;99.90;;;;;;5067633;28;20028;-46
2022/11/22 12:14:03;;;;;;;46.70;18.93;;;1.30;99.90;;;;;;5045770;28;20670;-47
2022/11/22 12:16:37;;;;;;;64.40;25.80;;;1.40;99.90;;;;;;5069495;28;20271;-47
2022/11/22 12:19:28;;;;;;;65.35;26.25;;;1.40;99.90;;;;;;5046690;28;20071;-48
2022/11/22 12:22:15;;;;;;;62.53;24.60;;;1.40;99.90;;;;;;5030019;28;20080;-49
2022/11/22 12:24:58;;;;;;;53.45;23.00;;;1.40;99.90;;;;;;5069156;28;20013;-49
2022/11/22 12:27:24;;;;;;;61.45;23.85;;;1.50;99.90;;;;;;5038050;28;20115;-48
2022/11/22 12:29:51;;;;;;;64.35;25.30;;;1.50;99.90;;;;;;5069018;28;20111;-46
2022/11/22 12:32:26;;;;;;;63.33;25.23;;;1.50;99.90;;;;;;5047580;28;20029;-47
2022/11/22 12:35:09;;;;;;;45.95;19.15;;;1.50;99.90;;;;;;5067503;28;20435;-47
2022/11/22 12:37:41;;;;;;;54.90;21.40;;;1.50;99.90;;;;;;5043329;28;20589;-47
2022/11/22 12:40:29;;;;;;;59.58;24.30;;;1.60;99.90;;;;;;5063140;28;20497;-47
2022/11/22 12:43:00;;;;;;;64.95;23.10;;;1.60;99.90;;;;;;5065764;28;20037;-48
2022/11/22 12:45:37;;;;;;;61.60;24.67;;;1.60;99.90;;;;;;5029173;28;20078;-47
2022/11/22 12:48:12;;;;;;;61.75;24.73;;;1.60;99.90;;;;;;5046984;28;20037;-53
2022/11/22 12:50:45;;;;;;;64.13;25.17;;;1.60;99.90;;;;;;5029002;28;20036;-52
2022/11/22 12:53:19;;;;;;;54.83;22.90;;;1.60;99.90;;;;;;5029101;28;20036;-53